createdAt,value
2023-04-22T07:52:43.738Z,98903.53
2023-04-22T07:55:27.422Z,98899.81
2023-04-22T07:58:06.701Z,98900.19
2023-04-22T08:00:47.697Z,98884.16
2023-04-22T08:03:33.845Z,98886.28
2023-04-22T08:06:10.300Z,98890.31
2023-04-22T08:08:57.678Z,98878.75
2023-04-22T08:11:31.957Z,98889.53
2023-04-22T08:14:04.480Z,98888.13
2023-04-22T08:16:40.966Z,98886.09
2023-04-22T08:19:38.413Z,98882.03
2023-04-22T08:22:30.098Z,98887.31
2023-04-22T08:25:11.361Z,98885.66
2023-04-22T08:27:43.579Z,98892.81
2023-04-22T08:30:27.897Z,98885.22
2023-04-22T08:32:59.425Z,98875.31
2023-04-22T08:35:30.871Z,98879.28
2023-04-22T08:38:06.344Z,98891.47
2023-04-22T08:40:59.473Z,98878.47
2023-04-22T08:43:37.593Z,98873.44
2023-04-22T08:46:18.054Z,98873.69
2023-04-22T08:49:05.913Z,98878.19
2023-04-22T08:51:42.035Z,98878.16
2023-04-22T08:54:25.024Z,98879.91
2023-04-22T08:57:11.664Z,98884.47
2023-04-22T08:59:49.531Z,98879.06
2023-04-22T09:02:32.398Z,98871.63
2023-04-22T09:05:12.661Z,98870.72
2023-04-22T09:07:50.318Z,98868.16
2023-04-22T09:10:21.646Z,98870.34
2023-04-22T09:13:03.272Z,98865.88
2023-04-22T09:15:37.794Z,98867.44
2023-04-22T09:18:19.400Z,98862.91
2023-04-22T09:21:03.865Z,98862.91
2023-04-22T09:23:50.103Z,98853.97
2023-04-22T09:26:35.711Z,98852.13
2023-04-22T09:29:39.324Z,98858.81
2023-04-22T09:32:28.685Z,98839.25
2023-04-22T09:35:18.554Z,98849.75
2023-04-22T09:38:03.582Z,98848.66
2023-04-22T09:40:45.491Z,98849.53
2023-04-22T09:43:25.135Z,98853.00
2023-04-22T09:46:16.736Z,98851.75
2023-04-22T09:49:06.232Z,98851.44
2023-04-22T09:51:58.584Z,98854.88
2023-04-22T09:54:31.062Z,98844.06
2023-04-22T09:57:22.215Z,98845.53
2023-04-22T09:59:54.496Z,98853.78
2023-04-22T10:02:45.889Z,98844.75
2023-04-22T10:05:49.047Z,98846.06
2023-04-22T10:08:40.847Z,98836.84
2023-04-22T10:11:22.618Z,98836.84
2023-04-22T10:14:10.947Z,98836.69
2023-04-22T10:16:56.128Z,98832.09
2023-04-22T10:19:51.939Z,98842.59
2023-04-22T10:22:38.567Z,98830.44
2023-04-22T10:25:39.192Z,98837.50
2023-04-22T10:28:19.980Z,98841.78
2023-04-22T10:31:24.060Z,98824.88
2023-04-22T10:34:16.086Z,98837.53
2023-04-22T10:37:09.464Z,98837.00
2023-04-22T10:40:16.156Z,98832.56
2023-04-22T10:42:59.429Z,98834.06
2023-04-22T10:45:40.984Z,98827.19
2023-04-22T10:48:24.708Z,98831.44
2023-04-22T10:52:01.074Z,98827.50
2023-04-22T10:55:10.649Z,98823.56
2023-04-22T10:57:45.222Z,98821.59
2023-04-22T11:00:54.489Z,98816.31
2023-04-22T11:03:36.799Z,98823.06
2023-04-22T11:06:18.693Z,98823.56
2023-04-22T11:09:24.502Z,98814.97
2023-04-22T11:13:01.384Z,98809.72
2023-04-22T11:15:39.710Z,98821.38
2023-04-22T11:18:33.720Z,98824.50
2023-04-22T11:21:34.659Z,98804.44
2023-04-22T11:24:37.895Z,98818.53
2023-04-22T11:27:14.595Z,98809.97
2023-04-22T11:30:12.192Z,98809.91
2023-04-22T11:32:46.724Z,98821.75
2023-04-22T11:35:44.770Z,98808.31
2023-04-22T11:38:37.777Z,98807.94
2023-04-22T11:41:15.221Z,98795.16
2023-04-22T11:43:50.025Z,98808.00
2023-04-22T11:46:39.931Z,98800.06
2023-04-22T11:49:35.466Z,98811.22
2023-04-22T11:52:07.276Z,98801.78
2023-04-22T11:54:54.393Z,98803.75
2023-04-22T11:57:39.616Z,98799.94
2023-04-22T12:00:18.542Z,98795.44
2023-04-22T12:03:15.863Z,98795.22
2023-04-22T12:06:11.129Z,98792.03
2023-04-22T12:08:44.828Z,98793.16
2023-04-22T12:11:23.065Z,98791.66
2023-04-22T12:14:15.654Z,98785.50
2023-04-22T12:16:53.082Z,98791.50
2023-04-22T12:19:34.884Z,98779.94
2023-04-22T12:22:21.650Z,98789.84
2023-04-22T12:24:56.139Z,98782.16
2023-04-22T12:27:31.994Z,98783.28
2023-04-22T12:30:03.015Z,98784.63
2023-04-22T12:32:33.329Z,98793.44
2023-04-22T12:35:17.416Z,98796.22
2023-04-22T12:38:09.610Z,98784.53
2023-04-22T12:40:52.798Z,98788.00
2023-04-22T12:43:24.446Z,98788.50
2023-04-22T12:46:04.821Z,98792.44
2023-04-22T12:48:46.842Z,98778.78
2023-04-22T12:51:39.393Z,98791.03
2023-04-22T12:54:13.404Z,98798.06
2023-04-22T12:56:50.577Z,98789.16
2023-04-22T12:59:26.627Z,98794.41
2023-04-22T13:01:58.847Z,98795.88
2023-04-22T13:04:33.899Z,98795.44
2023-04-22T13:07:17.851Z,98800.25
2023-04-22T13:10:10.797Z,98798.44
2023-04-22T13:12:43.862Z,98817.69
2023-04-22T13:15:21.462Z,98814.50
2023-04-22T13:18:03.644Z,98804.97
2023-04-22T13:20:46.683Z,98811.91
2023-04-22T13:23:47.469Z,98812.59
2023-04-22T13:26:22.604Z,98816.34
2023-04-22T13:29:13.449Z,98810.16
2023-04-22T13:31:46.651Z,98806.78
2023-04-22T13:34:39.339Z,98811.09
2023-04-22T13:37:19.634Z,98807.34
2023-04-22T13:40:11.099Z,98814.97
2023-04-22T13:43:03.211Z,98805.16
2023-04-22T13:45:49.085Z,98812.06
2023-04-22T13:48:36.702Z,98817.31
2023-04-22T13:51:20.255Z,98806.94
2023-04-22T13:54:00.046Z,98805.16
2023-04-22T13:56:52.469Z,98798.28
2023-04-22T13:59:43.200Z,98803.69
2023-04-22T14:02:16.311Z,98801.56
2023-04-22T14:05:07.776Z,98791.69
2023-04-22T14:07:45.760Z,98796.94
2023-04-22T14:10:20.689Z,98809.94
2023-04-22T14:13:13.832Z,98796.47
2023-04-22T14:15:50.962Z,98797.13
2023-04-22T14:18:26.444Z,98800.91
2023-04-22T14:21:12.586Z,98800.25
2023-04-22T14:23:54.840Z,98802.22
2023-04-22T14:26:33.116Z,98782.69
2023-04-22T14:29:24.034Z,98807.13
2023-04-22T14:32:08.211Z,98806.31
2023-04-22T14:34:44.026Z,98810.59
2023-04-22T14:37:18.192Z,98814.03
2023-04-22T14:40:04.622Z,98805.44
2023-04-22T14:42:38.936Z,98804.78
2023-04-22T14:45:36.950Z,98807.09
2023-04-22T14:48:09.414Z,98802.13
2023-04-22T14:51:01.844Z,98800.16
2023-04-22T14:53:32.445Z,98803.19
2023-04-22T14:56:28.712Z,98798.44
2023-04-22T14:59:00.712Z,98799.59
2023-04-22T15:01:48.724Z,98789.22
2023-04-22T15:04:28.059Z,98802.69
2023-04-22T15:07:22.239Z,98802.50
2023-04-22T15:10:12.582Z,98803.78
2023-04-22T15:13:03.796Z,98799.50
2023-04-22T15:15:38.833Z,98790.84
2023-04-22T15:18:34.106Z,98795.97
2023-04-22T15:21:28.724Z,98773.81
2023-04-22T15:24:24.502Z,98783.19
2023-04-22T15:27:12.041Z,98779.06
2023-04-22T15:29:51.424Z,98792.38
2023-04-22T15:32:41.662Z,98789.09
2023-04-22T15:35:24.631Z,98800.91
2023-04-22T15:37:57.847Z,98792.16
2023-04-22T15:40:34.363Z,98787.22
2023-04-22T15:43:15.942Z,98791.34
2023-04-22T15:45:55.293Z,98781.66
2023-04-22T15:48:30.556Z,98783.09
2023-04-22T15:51:25.405Z,98775.06
2023-04-22T15:54:31.984Z,98779.66
2023-04-22T15:57:04.531Z,98776.69
2023-04-22T15:59:56.316Z,98783.38
2023-04-22T16:03:00.796Z,98767.09
2023-04-22T16:05:48.530Z,98775.66
2023-04-22T16:08:34.874Z,98770.56
2023-04-22T16:11:13.732Z,98780.31
2023-04-22T16:13:55.689Z,98774.06
2023-04-22T16:16:42.226Z,98773.09
2023-04-22T16:19:13.223Z,98784.91
2023-04-22T16:21:53.660Z,98781.44
2023-04-22T16:24:48.076Z,98778.13
2023-04-22T16:27:32.153Z,98776.97
2023-04-22T16:30:10.843Z,98789.09
2023-04-22T16:32:55.184Z,98784.34
2023-04-22T16:35:32.474Z,98783.03
2023-04-22T16:38:16.989Z,98774.19
2023-04-22T16:41:25.110Z,98775.22
2023-04-22T16:43:55.817Z,98779.16
2023-04-22T16:46:56.344Z,98790.03
2023-04-22T16:49:31.789Z,98781.19
2023-04-22T16:52:23.103Z,98780.38
2023-04-22T16:55:13.531Z,98783.66
2023-04-22T16:58:16.536Z,98781.84
2023-04-22T17:01:10.457Z,98774.81
2023-04-22T17:03:57.461Z,98775.41
2023-04-22T17:06:28.572Z,98783.75
2023-04-22T17:09:07.260Z,98784.41
2023-04-22T17:11:47.888Z,98787.81
2023-04-22T17:14:35.466Z,98781.69
2023-04-22T17:17:06.519Z,98786.56
2023-04-22T17:19:58.155Z,98779.91
2023-04-22T17:22:47.048Z,98784.94
2023-04-22T17:25:34.610Z,98791.91
2023-04-22T17:28:31.229Z,98785.44
2023-04-22T17:31:14.399Z,98789.78
2023-04-22T17:33:52.115Z,98791.09
2023-04-22T17:36:32.013Z,98792.53
2023-04-22T17:39:15.834Z,98793.09
2023-04-22T17:41:54.099Z,98789.91
2023-04-22T17:44:31.540Z,98779.69
2023-04-22T17:47:35.335Z,98788.81
2023-04-22T17:50:16.183Z,98776.09
2023-04-22T17:52:51.780Z,98778.38
2023-04-22T17:55:58.179Z,98790.88
2023-04-22T17:58:38.879Z,98795.06
2023-04-22T18:01:26.113Z,98793.16
2023-04-22T18:04:24.414Z,98797.78
2023-04-22T18:07:02.639Z,98805.38
2023-04-22T18:09:57.982Z,98810.06
2023-04-22T18:12:37.048Z,98814.25
2023-04-22T18:15:26.407Z,98813.78
2023-04-22T18:17:58.395Z,98815.19
2023-04-22T18:20:50.741Z,98822.56
2023-04-22T18:23:28.186Z,98823.56
2023-04-22T18:26:09.843Z,98832.94
2023-04-22T18:29:08.308Z,98828.56
2023-04-22T18:32:05.803Z,98823.34
2023-04-22T18:34:40.225Z,98844.22
2023-04-22T18:37:32.980Z,98841.84
2023-04-22T18:40:16.106Z,98854.47
2023-04-22T18:42:48.120Z,98846.88
2023-04-22T18:45:26.668Z,98852.81
2023-04-22T18:48:07.928Z,98857.59
2023-04-22T18:50:45.541Z,98857.47
2023-04-22T18:53:39.326Z,98865.31
2023-04-22T18:56:26.636Z,98859.78
2023-04-22T18:59:09.251Z,98864.69
2023-04-22T19:01:48.186Z,98864.69
2023-04-22T19:04:33.948Z,98848.53
2023-04-22T19:07:28.365Z,98867.47
2023-04-22T19:10:16.171Z,98879.63
2023-04-22T19:13:00.657Z,98885.13
2023-04-22T19:15:31.252Z,98884.31
2023-04-22T19:18:38.909Z,98886.78
2023-04-22T19:21:09.394Z,98893.72
2023-04-22T19:23:56.836Z,98881.78
2023-04-22T19:26:47.382Z,98890.31
2023-04-22T19:29:28.324Z,98896.94
2023-04-22T19:32:11.313Z,98884.72
2023-04-22T19:34:51.699Z,98885.78
2023-04-22T19:37:30.902Z,98886.91
2023-04-22T19:40:21.902Z,98894.47
2023-04-22T19:43:05.573Z,98889.66
2023-04-22T19:45:54.247Z,98879.22
2023-04-22T19:48:29.647Z,98886.63
2023-04-22T19:51:11.356Z,98886.63
2023-04-22T19:53:53.649Z,98890.47
2023-04-22T19:56:38.400Z,98889.38
2023-04-22T19:59:11.695Z,98891.94
2023-04-22T20:02:02.073Z,98890.41
2023-04-22T20:04:55.259Z,98901.63
2023-04-22T20:07:44.116Z,98895.84
2023-04-22T20:10:23.078Z,98898.00
2023-04-22T20:13:03.506Z,98902.06
2023-04-22T20:15:44.554Z,98905.75
2023-04-22T20:18:29.265Z,98912.53
2023-04-22T20:21:16.600Z,98919.75
2023-04-22T20:24:34.430Z,98922.00
2023-04-22T20:27:18.841Z,98912.56
2023-04-22T20:30:10.219Z,98917.81
2023-04-22T20:32:44.969Z,98924.75
2023-04-22T20:35:32.313Z,98918.69
2023-04-22T20:38:15.924Z,98929.03
2023-04-22T20:41:30.129Z,98930.69
2023-04-22T20:44:03.938Z,98931.75
2023-04-22T20:46:34.441Z,98923.41
2023-04-22T20:49:16.785Z,98921.72
2023-04-22T20:52:07.447Z,98920.91
2023-04-22T20:54:43.672Z,98923.13
2023-04-22T20:57:14.422Z,98929.16
2023-04-22T20:59:52.029Z,98911.13
2023-04-22T21:02:36.541Z,98923.06
2023-04-22T21:05:15.747Z,98922.47
2023-04-22T21:07:53.224Z,98927.91
2023-04-22T21:10:33.278Z,98928.13
2023-04-22T21:13:19.860Z,98913.41
2023-04-22T21:15:59.398Z,98920.13
2023-04-22T21:18:47.999Z,98914.22
2023-04-22T21:21:38.647Z,98921.75
2023-04-22T21:24:17.459Z,98915.75
2023-04-22T21:26:54.047Z,98919.06
2023-04-22T21:29:26.082Z,98911.47
2023-04-22T21:32:12.849Z,98915.16
2023-04-22T21:35:00.375Z,98921.06
2023-04-22T21:37:54.405Z,98930.28
2023-04-22T21:40:27.982Z,98933.97
2023-04-22T21:43:08.028Z,98930.75
2023-04-22T21:45:46.222Z,98937.03
2023-04-22T21:48:32.956Z,98929.59
2023-04-22T21:51:18.704Z,98932.28
2023-04-22T21:53:53.143Z,98927.94
2023-04-22T21:56:23.253Z,98929.34
2023-04-22T21:59:18.704Z,98924.16
2023-04-22T22:02:14.441Z,98925.00
2023-04-22T22:05:06.316Z,98933.13
2023-04-22T22:07:49.323Z,98939.25
2023-04-22T22:11:03.184Z,98936.66
2023-04-22T22:13:37.204Z,98933.13
2023-04-22T22:16:17.911Z,98934.06
2023-04-22T22:19:02.870Z,98933.81
2023-04-22T22:21:35.101Z,98930.91
2023-04-22T22:24:26.654Z,98932.53
2023-04-22T22:27:26.888Z,98934.69
2023-04-22T22:30:21.945Z,98935.84
2023-04-22T22:33:14.586Z,98932.44
2023-04-22T22:35:45.608Z,98931.00
2023-04-22T22:38:19.726Z,98932.91
2023-04-22T22:41:14.257Z,98930.28
2023-04-22T22:43:55.164Z,98932.91
2023-04-22T22:46:50.846Z,98938.09
2023-04-22T22:49:25.541Z,98927.69
2023-04-22T22:52:27.303Z,98933.72
2023-04-22T22:55:23.404Z,98937.38
2023-04-22T22:58:06.930Z,98933.34
2023-04-22T23:00:59.505Z,98946.44
2023-04-22T23:03:42.477Z,98938.56
2023-04-22T23:06:15.025Z,98943.63
2023-04-22T23:08:46.544Z,98947.06
2023-04-22T23:11:32.900Z,98936.66
2023-04-22T23:14:09.969Z,98937.28
2023-04-22T23:17:00.651Z,98933.72
2023-04-22T23:19:45.817Z,98930.75
2023-04-22T23:22:32.663Z,98931.38
2023-04-22T23:25:13.627Z,98930.53
2023-04-22T23:27:54.415Z,98926.28
2023-04-22T23:30:31.270Z,98924.50
2023-04-22T23:33:28.199Z,98919.09
2023-04-22T23:36:23.174Z,98924.38
2023-04-22T23:38:56.713Z,98905.03
2023-04-22T23:41:35.121Z,98918.47
2023-04-22T23:44:06.815Z,98920.38
2023-04-22T23:46:41.171Z,98916.13
2023-04-22T23:49:41.894Z,98913.72
2023-04-22T23:52:38.239Z,98910.41
2023-04-22T23:55:26.391Z,98906.53
2023-04-22T23:58:19.897Z,98910.66
